createdAt,value
2022-07-29T00:01:03.395Z,4.23
2022-07-29T00:03:30.464Z,5.10
2022-07-29T00:05:57.536Z,4.60
2022-07-29T00:08:24.583Z,4.43
2022-07-29T00:10:52.360Z,5.03
2022-07-29T00:13:32.393Z,5.03
2022-07-29T00:16:04.812Z,4.30
2022-07-29T00:18:33.102Z,4.20
2022-07-29T00:21:00.667Z,5.50
2022-07-29T00:23:27.896Z,5.63
2022-07-29T00:25:54.975Z,4.93
2022-07-29T00:28:22.019Z,5.07
2022-07-29T00:30:49.078Z,5.03
2022-07-29T00:33:16.087Z,5.03
2022-07-29T00:35:45.794Z,5.37
2022-07-29T00:38:18.014Z,5.20
2022-07-29T00:40:46.090Z,5.90
2022-07-29T00:43:14.843Z,5.60
2022-07-29T00:45:45.015Z,4.77
2022-07-29T00:48:12.077Z,5.60
2022-07-29T00:50:40.404Z,5.93
2022-07-29T00:53:09.367Z,5.70
2022-07-29T00:55:36.685Z,5.33
2022-07-29T00:58:03.967Z,5.10
2022-07-29T01:00:31.753Z,5.73
2022-07-29T01:02:59.343Z,5.60
2022-07-29T01:05:51.077Z,5.40
2022-07-29T01:08:17.244Z,5.50
2022-07-29T01:10:47.723Z,5.70
2022-07-29T01:13:17.536Z,5.60
2022-07-29T01:15:53.995Z,5.70
2022-07-29T01:18:37.368Z,5.60
2022-07-29T01:21:42.380Z,5.63
2022-07-29T01:24:17.237Z,5.60
2022-07-29T01:27:15.739Z,5.03
2022-07-29T01:29:58.236Z,5.13
2022-07-29T01:32:29.579Z,5.50
2022-07-29T01:35:10.673Z,5.57
2022-07-29T01:37:56.371Z,5.33
2022-07-29T01:40:44.606Z,5.27
2022-07-29T01:43:15.573Z,6.00
2022-07-29T01:45:58.985Z,5.40
2022-07-29T01:48:40.428Z,7.07
2022-07-29T01:51:13.646Z,5.57
2022-07-29T01:53:57.691Z,6.00
2022-07-29T01:56:25.504Z,5.77
2022-07-29T01:58:55.149Z,5.70
2022-07-29T02:01:25.215Z,5.00
2022-07-29T02:03:56.227Z,5.37
2022-07-29T02:06:24.580Z,5.60
2022-07-29T02:08:54.102Z,5.37
2022-07-29T02:11:21.239Z,5.80
2022-07-29T02:13:50.770Z,5.63
2022-07-29T02:16:20.535Z,5.43
2022-07-29T02:18:51.648Z,5.73
2022-07-29T02:21:25.118Z,5.77
2022-07-29T02:23:54.293Z,5.60
2022-07-29T02:26:23.418Z,5.50
2022-07-29T02:28:53.582Z,6.20
2022-07-29T02:31:25.424Z,5.90
2022-07-29T02:33:54.824Z,5.53
2022-07-29T02:36:25.045Z,6.03
2022-07-29T02:38:52.775Z,6.13
2022-07-29T02:41:40.005Z,5.63
2022-07-29T02:44:12.809Z,6.20
2022-07-29T02:46:52.977Z,6.03
2022-07-29T02:49:35.508Z,6.03
2022-07-29T02:52:21.034Z,5.70
2022-07-29T02:54:56.148Z,5.83
2022-07-29T02:57:29.320Z,5.80
2022-07-29T03:00:00.107Z,6.23
2022-07-29T03:02:29.616Z,6.80
2022-07-29T03:05:01.092Z,6.87
2022-07-29T03:07:28.995Z,6.30
2022-07-29T03:09:57.161Z,6.17
2022-07-29T03:12:25.108Z,6.30
2022-07-29T03:14:53.391Z,6.53
2022-07-29T03:17:22.587Z,5.90
2022-07-29T03:19:50.456Z,6.87
2022-07-29T03:22:19.141Z,6.53
2022-07-29T03:24:46.698Z,5.50
2022-07-29T03:27:14.492Z,6.33
2022-07-29T03:29:41.530Z,6.47
2022-07-29T03:32:17.393Z,5.50
2022-07-29T03:34:51.055Z,6.10
2022-07-29T03:37:18.022Z,5.90
2022-07-29T03:39:47.156Z,6.27
2022-07-29T03:42:17.414Z,6.77
2022-07-29T03:44:48.669Z,6.10
2022-07-29T03:47:18.757Z,6.40
2022-07-29T03:49:51.693Z,6.33
2022-07-29T03:52:19.038Z,6.57
2022-07-29T03:54:46.164Z,7.30
2022-07-29T03:57:14.318Z,7.20
2022-07-29T03:59:42.143Z,9.03
2022-07-29T04:02:12.052Z,10.13
2022-07-29T04:04:39.599Z,9.33
2022-07-29T04:07:06.773Z,8.50
2022-07-29T04:09:33.809Z,9.03
2022-07-29T04:12:02.977Z,8.20
2022-07-29T04:14:35.536Z,7.33
2022-07-29T04:17:04.503Z,7.80
2022-07-29T04:19:32.385Z,6.90
2022-07-29T04:22:00.704Z,6.70
2022-07-29T04:24:28.643Z,7.07
2022-07-29T04:26:55.789Z,7.00
2022-07-29T04:29:22.829Z,6.97
2022-07-29T04:31:49.840Z,6.60
2022-07-29T04:34:17.210Z,6.83
2022-07-29T04:36:44.458Z,7.33
2022-07-29T04:39:11.508Z,6.67
2022-07-29T04:41:38.527Z,7.60
2022-07-29T04:44:07.089Z,7.20
2022-07-29T04:46:35.129Z,7.50
2022-07-29T04:49:03.144Z,6.60
2022-07-29T04:51:30.176Z,7.13
2022-07-29T04:53:57.299Z,7.13
2022-07-29T04:56:25.113Z,7.00
2022-07-29T04:58:52.154Z,8.10
2022-07-29T05:01:19.441Z,6.60
2022-07-29T05:03:46.774Z,7.33
2022-07-29T05:06:13.796Z,6.53
2022-07-29T05:08:42.027Z,6.87
2022-07-29T05:11:12.105Z,6.67
2022-07-29T05:13:46.082Z,6.80
2022-07-29T05:16:15.238Z,8.30
2022-07-29T05:18:43.485Z,6.37
2022-07-29T05:21:10.481Z,7.30
2022-07-29T05:23:37.547Z,6.50
2022-07-29T05:26:04.548Z,6.30
2022-07-29T05:28:36.174Z,6.53
2022-07-29T05:31:03.375Z,6.13
2022-07-29T05:33:35.671Z,7.00
2022-07-29T05:36:08.295Z,6.70
2022-07-29T05:38:36.686Z,7.03
2022-07-29T05:41:04.608Z,6.97
2022-07-29T05:43:31.797Z,7.03
2022-07-29T05:45:59.446Z,6.10
2022-07-29T05:48:26.853Z,6.47
2022-07-29T05:50:53.915Z,6.73
2022-07-29T05:53:21.454Z,6.70
2022-07-29T05:55:49.493Z,6.57
2022-07-29T05:58:16.486Z,6.80
2022-07-29T06:00:44.028Z,7.10
2022-07-29T06:03:10.969Z,6.40
2022-07-29T06:05:38.187Z,6.40
2022-07-29T06:08:08.671Z,6.73
2022-07-29T06:10:39.935Z,6.87
2022-07-29T06:13:06.904Z,6.67
2022-07-29T06:15:34.710Z,6.60
2022-07-29T06:18:02.488Z,6.40
2022-07-29T06:20:31.517Z,6.90
2022-07-29T06:22:59.203Z,6.27
2022-07-29T06:25:26.420Z,6.57
2022-07-29T06:27:53.659Z,6.23
2022-07-29T06:30:20.835Z,5.40
2022-07-29T06:32:48.325Z,6.50
2022-07-29T06:35:42.161Z,6.30
2022-07-29T06:38:07.312Z,5.60
2022-07-29T06:41:02.272Z,5.67
2022-07-29T06:43:33.216Z,6.07
2022-07-29T06:46:02.564Z,6.30
2022-07-29T06:48:30.666Z,6.10
2022-07-29T06:50:57.846Z,5.43
2022-07-29T06:53:25.121Z,5.47
2022-07-29T06:55:52.178Z,5.90
2022-07-29T06:58:21.459Z,5.53
2022-07-29T07:00:49.293Z,6.00
2022-07-29T07:03:18.090Z,6.23
2022-07-29T07:05:45.987Z,5.90
2022-07-29T07:08:14.138Z,5.63
2022-07-29T07:10:41.243Z,6.10
2022-07-29T07:13:08.401Z,6.30
2022-07-29T07:15:39.919Z,6.60
2022-07-29T07:18:07.999Z,6.33
2022-07-29T07:20:35.702Z,6.00
2022-07-29T07:23:02.883Z,6.80
2022-07-29T07:25:29.888Z,5.20
2022-07-29T07:27:56.858Z,6.60
2022-07-29T07:30:23.905Z,7.10
2022-07-29T07:32:50.880Z,6.30
2022-07-29T07:35:18.113Z,6.87
2022-07-29T07:37:45.165Z,6.63
2022-07-29T07:40:14.161Z,6.03
2022-07-29T07:42:46.645Z,6.53
2022-07-29T07:45:16.241Z,7.50
2022-07-29T07:47:44.659Z,6.33
2022-07-29T07:50:18.713Z,6.53
2022-07-29T07:52:51.901Z,6.93
2022-07-29T07:55:19.904Z,6.90
2022-07-29T07:57:47.019Z,6.03
2022-07-29T08:00:15.369Z,6.13
2022-07-29T08:02:44.160Z,5.97
2022-07-29T08:05:13.007Z,6.80
2022-07-29T08:07:40.867Z,6.40
2022-07-29T08:10:08.728Z,6.83
2022-07-29T08:12:35.822Z,6.53
2022-07-29T08:15:03.036Z,6.50
2022-07-29T08:17:30.202Z,6.97
2022-07-29T08:20:02.499Z,6.40
2022-07-29T08:22:30.102Z,6.73
2022-07-29T08:24:57.274Z,5.93
2022-07-29T08:30:12.420Z,7.20
2022-07-29T08:32:55.674Z,5.87
2022-07-29T08:35:24.688Z,5.80
2022-07-29T08:37:52.696Z,6.10
2022-07-29T08:40:32.258Z,6.00
2022-07-29T08:43:04.982Z,6.23
2022-07-29T08:45:48.490Z,6.60
2022-07-29T08:48:19.899Z,6.53
2022-07-29T08:50:48.338Z,5.90
2022-07-29T08:53:17.872Z,6.60
2022-07-29T08:55:50.602Z,6.90
2022-07-29T08:58:20.414Z,6.47
2022-07-29T09:00:56.179Z,6.50
2022-07-29T09:03:28.689Z,6.50
2022-07-29T09:05:56.044Z,6.80
2022-07-29T09:08:24.235Z,6.80
2022-07-29T09:10:52.413Z,7.00
2022-07-29T09:13:19.419Z,6.27
2022-07-29T09:15:46.521Z,7.20
2022-07-29T09:18:20.390Z,6.17
2022-07-29T09:21:16.384Z,7.10
2022-07-29T09:24:08.214Z,6.53
2022-07-29T09:26:45.039Z,6.73
2022-07-29T09:29:13.998Z,7.07
2022-07-29T09:31:47.035Z,6.27
2022-07-29T09:34:17.304Z,6.57
2022-07-29T09:36:50.120Z,6.63
2022-07-29T09:39:30.901Z,6.73
2022-07-29T09:42:01.100Z,6.60
2022-07-29T09:44:28.386Z,6.00
2022-07-29T09:47:07.225Z,6.60
2022-07-29T09:49:55.412Z,6.10
2022-07-29T09:52:22.839Z,6.40
2022-07-29T09:54:49.959Z,7.07
2022-07-29T09:57:30.171Z,6.50
2022-07-29T10:00:13.372Z,5.77
2022-07-29T10:02:42.658Z,6.77
2022-07-29T10:05:25.025Z,5.90
2022-07-29T10:07:57.907Z,6.73
2022-07-29T10:10:24.988Z,6.73
2022-07-29T10:13:06.949Z,5.97
2022-07-29T10:15:40.118Z,7.03
2022-07-29T10:18:08.473Z,16.30
2022-07-29T10:20:36.547Z,7.23
2022-07-29T10:23:03.695Z,6.90
2022-07-29T10:25:32.816Z,5.73
2022-07-29T10:27:59.982Z,7.10
2022-07-29T10:30:28.183Z,6.23
2022-07-29T10:32:55.077Z,6.23
2022-07-29T10:35:46.410Z,6.23
2022-07-29T10:39:03.468Z,7.30
2022-07-29T10:41:51.724Z,6.77
2022-07-29T10:44:24.877Z,6.80
2022-07-29T10:46:53.244Z,6.47
2022-07-29T10:49:25.265Z,7.63
2022-07-29T10:52:07.082Z,6.80
2022-07-29T10:54:37.186Z,8.50
2022-07-29T10:57:13.842Z,6.60
2022-07-29T10:59:43.133Z,6.97
2022-07-29T11:02:41.279Z,5.33
2022-07-29T11:05:11.054Z,6.67
2022-07-29T11:07:45.873Z,7.30
2022-07-29T11:10:13.893Z,6.80
2022-07-29T11:12:43.873Z,7.70
2022-07-29T11:15:18.476Z,7.40
2022-07-29T11:17:59.706Z,6.70
2022-07-29T11:20:47.820Z,6.83
2022-07-29T11:23:21.999Z,6.20
2022-07-29T11:26:12.830Z,7.10
2022-07-29T11:28:55.538Z,6.10
2022-07-29T11:31:44.404Z,6.30
2022-07-29T11:34:23.594Z,6.40
2022-07-29T11:37:10.401Z,5.90
2022-07-29T11:39:39.055Z,5.60
2022-07-29T11:42:35.542Z,6.60
2022-07-29T11:45:43.862Z,6.33
2022-07-29T11:48:27.567Z,6.10
2022-07-29T11:50:48.256Z,5.53
2022-07-29T11:53:16.235Z,6.10
2022-07-29T11:55:51.626Z,5.20
2022-07-29T11:58:25.082Z,6.33
2022-07-29T12:00:55.629Z,5.83
2022-07-29T12:03:34.921Z,6.27
2022-07-29T12:06:03.622Z,5.50
2022-07-29T12:08:31.370Z,5.83
2022-07-29T12:10:58.408Z,5.37
2022-07-29T12:13:37.005Z,5.30
2022-07-29T12:16:04.618Z,5.37
2022-07-29T12:18:33.515Z,5.20
2022-07-29T12:21:05.401Z,5.50
2022-07-29T12:23:35.134Z,5.50
2022-07-29T12:26:07.253Z,5.30
2022-07-29T12:28:40.629Z,5.27
2022-07-29T12:31:14.048Z,5.40
2022-07-29T12:33:41.302Z,5.13
2022-07-29T12:36:15.612Z,5.80
2022-07-29T12:38:45.531Z,5.90
2022-07-29T12:41:12.847Z,5.10
2022-07-29T12:43:55.605Z,5.73
2022-07-29T12:46:23.112Z,6.10
2022-07-29T12:48:55.898Z,4.80
2022-07-29T12:51:40.650Z,4.90
2022-07-29T12:54:14.077Z,4.77
2022-07-29T12:56:44.321Z,5.40
2022-07-29T12:59:20.703Z,5.07
2022-07-29T13:01:50.816Z,4.90
2022-07-29T13:04:33.324Z,4.63
2022-07-29T13:07:09.162Z,4.93
2022-07-29T13:09:43.727Z,4.77
2022-07-29T13:12:13.200Z,5.27
2022-07-29T13:14:42.251Z,5.83
2022-07-29T13:17:32.772Z,5.30
2022-07-29T13:20:13.678Z,5.43
2022-07-29T13:22:41.615Z,5.63
2022-07-29T13:25:09.453Z,5.43
2022-07-29T13:27:39.329Z,5.50
2022-07-29T13:30:09.505Z,4.80
2022-07-29T13:32:37.680Z,5.07
2022-07-29T13:35:07.870Z,5.90
2022-07-29T13:37:39.174Z,5.00
2022-07-29T13:40:08.462Z,5.20
2022-07-29T13:42:35.507Z,5.10
2022-07-29T13:45:03.177Z,6.10
2022-07-29T13:47:32.800Z,6.20
2022-07-29T13:50:10.900Z,6.17
2022-07-29T13:52:39.319Z,6.83
2022-07-29T13:55:07.071Z,6.07
2022-07-29T13:57:34.162Z,6.60
2022-07-29T14:00:01.218Z,6.27
2022-07-29T14:02:28.268Z,6.63
2022-07-29T14:04:55.965Z,6.57
2022-07-29T14:07:24.203Z,7.20
2022-07-29T14:09:52.008Z,6.57
2022-07-29T14:12:19.128Z,7.57
2022-07-29T14:14:47.281Z,7.60
2022-07-29T14:17:15.038Z,8.27
2022-07-29T14:19:42.781Z,9.00
2022-07-29T14:22:10.780Z,8.10
2022-07-29T14:24:38.573Z,9.50
2022-07-29T14:27:07.643Z,15.47
2022-07-29T14:29:37.440Z,19.53
2022-07-29T14:32:11.301Z,11.30
2022-07-29T14:34:39.296Z,11.53
2022-07-29T14:37:07.670Z,10.10
2022-07-29T14:39:42.914Z,10.07
2022-07-29T14:42:12.714Z,9.30
2022-07-29T14:44:42.548Z,9.40
2022-07-29T14:47:10.158Z,8.60
2022-07-29T14:49:37.164Z,9.20
2022-07-29T14:52:04.507Z,9.30
2022-07-29T14:54:31.441Z,9.17
2022-07-29T14:56:58.867Z,9.00
2022-07-29T14:59:27.579Z,8.97
2022-07-29T15:01:55.113Z,9.40
2022-07-29T15:04:22.289Z,8.83
2022-07-29T15:06:49.427Z,7.80
2022-07-29T15:09:16.480Z,8.10
2022-07-29T15:11:43.510Z,9.10
2022-07-29T15:14:10.585Z,7.60
2022-07-29T15:16:39.274Z,8.87
2022-07-29T15:19:10.451Z,8.43
2022-07-29T15:21:41.631Z,7.87
2022-07-29T15:24:19.182Z,8.57
2022-07-29T15:26:47.461Z,8.23
2022-07-29T15:29:14.717Z,8.80
2022-07-29T15:31:41.917Z,8.70
2022-07-29T15:34:09.133Z,8.07
2022-07-29T15:36:51.413Z,8.60
2022-07-29T15:39:20.718Z,9.27
2022-07-29T15:41:48.409Z,9.30
2022-07-29T15:44:15.442Z,9.33
2022-07-29T15:47:01.543Z,9.87
2022-07-29T15:49:48.148Z,10.80
2022-07-29T15:52:25.198Z,9.20
2022-07-29T15:54:52.684Z,10.20
2022-07-29T15:57:19.706Z,9.93
2022-07-29T15:59:46.651Z,9.90
2022-07-29T16:02:13.663Z,9.20
2022-07-29T16:04:40.690Z,10.30
2022-07-29T16:07:07.758Z,9.80
2022-07-29T16:09:34.931Z,8.90
2022-07-29T16:12:02.146Z,9.33
2022-07-29T16:14:32.233Z,8.63
2022-07-29T16:17:02.070Z,8.53
2022-07-29T16:19:30.607Z,8.37
2022-07-29T16:21:59.863Z,7.87
2022-07-29T16:24:29.889Z,8.23
2022-07-29T16:26:57.709Z,8.30
2022-07-29T16:29:24.925Z,8.57
2022-07-29T16:31:53.181Z,8.27
2022-07-29T16:34:20.341Z,8.10
2022-07-29T16:36:47.947Z,7.57
2022-07-29T16:39:15.223Z,8.03
2022-07-29T16:41:42.405Z,7.03
2022-07-29T16:44:09.385Z,7.27
2022-07-29T16:46:37.820Z,8.03
2022-07-29T16:49:06.292Z,7.87
2022-07-29T16:51:33.272Z,8.37
2022-07-29T16:54:00.219Z,8.40
2022-07-29T16:56:27.154Z,7.80
2022-07-29T16:58:54.124Z,8.20
2022-07-29T17:01:21.142Z,8.70
2022-07-29T17:04:06.490Z,7.60
2022-07-29T17:06:38.793Z,7.97
2022-07-29T17:09:07.947Z,8.03
2022-07-29T17:11:53.305Z,8.57
2022-07-29T17:14:27.394Z,7.80
2022-07-29T17:17:00.984Z,8.90
2022-07-29T17:19:31.757Z,9.23
2022-07-29T17:22:08.970Z,9.90
2022-07-29T17:24:39.040Z,9.07
2022-07-29T17:27:08.363Z,9.03
2022-07-29T17:29:35.456Z,9.00
2022-07-29T17:32:02.579Z,8.27
2022-07-29T17:34:29.734Z,8.20
2022-07-29T17:36:57.193Z,8.60
2022-07-29T17:39:24.467Z,8.30
2022-07-29T17:41:51.467Z,8.50
2022-07-29T17:44:18.450Z,7.93
2022-07-29T17:46:45.500Z,8.10
2022-07-29T17:49:12.595Z,7.97
2022-07-29T17:51:39.758Z,7.03
2022-07-29T17:54:06.638Z,6.90
2022-07-29T17:56:34.139Z,6.83
2022-07-29T17:59:06.517Z,6.70
2022-07-29T18:01:34.580Z,7.23
2022-07-29T18:04:03.119Z,7.77
2022-07-29T18:06:30.159Z,7.47
2022-07-29T18:08:57.219Z,8.30
2022-07-29T18:11:24.290Z,8.47
2022-07-29T18:13:51.309Z,8.30
2022-07-29T18:16:18.708Z,7.63
2022-07-29T18:18:45.994Z,8.37
2022-07-29T18:21:13.163Z,8.70
2022-07-29T18:23:40.346Z,7.87
2022-07-29T18:26:07.378Z,9.20
2022-07-29T18:28:34.455Z,8.43
2022-07-29T18:31:02.713Z,8.57
2022-07-29T18:33:30.504Z,8.13
2022-07-29T18:36:11.485Z,9.60
2022-07-29T18:38:41.547Z,8.47
2022-07-29T18:41:08.622Z,8.77
2022-07-29T18:43:35.942Z,9.70
2022-07-29T18:46:03.107Z,9.10
2022-07-29T18:48:31.704Z,9.07
2022-07-29T18:50:58.742Z,8.47
2022-07-29T18:53:25.788Z,8.73
2022-07-29T18:55:55.356Z,8.77
2022-07-29T18:58:24.328Z,9.00
2022-07-29T19:00:51.360Z,8.67
2022-07-29T19:03:18.359Z,9.03
2022-07-29T19:05:45.375Z,9.10
2022-07-29T19:08:12.442Z,9.27
2022-07-29T19:10:39.488Z,9.10
2022-07-29T19:13:06.921Z,9.77
2022-07-29T19:15:33.896Z,9.80
2022-07-29T19:18:01.422Z,10.33
2022-07-29T19:20:29.675Z,9.50
2022-07-29T19:22:56.987Z,10.17
2022-07-29T19:25:24.289Z,8.50
2022-07-29T19:27:51.353Z,10.10
2022-07-29T19:30:18.778Z,9.93
2022-07-29T19:32:45.740Z,9.80
2022-07-29T19:35:24.847Z,9.00
2022-07-29T19:37:53.380Z,9.57
2022-07-29T19:40:21.149Z,10.37
2022-07-29T19:42:50.018Z,9.63
2022-07-29T19:45:17.174Z,9.70
2022-07-29T19:47:44.433Z,10.17
2022-07-29T19:50:11.541Z,9.63
2022-07-29T19:52:38.930Z,9.17
2022-07-29T19:55:07.900Z,9.53
2022-07-29T19:57:40.566Z,9.83
2022-07-29T20:00:10.109Z,9.07
2022-07-29T20:02:40.376Z,9.37
2022-07-29T20:05:08.513Z,10.60
2022-07-29T20:07:36.335Z,9.63
2022-07-29T20:10:05.350Z,9.73
2022-07-29T20:12:33.002Z,8.80
2022-07-29T20:15:00.004Z,10.37
2022-07-29T20:17:28.557Z,9.17
2022-07-29T20:19:57.337Z,9.20
2022-07-29T20:22:24.374Z,9.73
2022-07-29T20:24:51.410Z,9.83
2022-07-29T20:27:19.267Z,9.97
2022-07-29T20:29:46.292Z,9.70
2022-07-29T20:32:13.305Z,9.43
2022-07-29T20:34:43.680Z,10.50
2022-07-29T20:37:13.516Z,8.93
2022-07-29T20:39:42.785Z,9.10
2022-07-29T20:42:09.881Z,9.40
2022-07-29T20:44:37.050Z,10.47
2022-07-29T20:47:04.242Z,9.80
2022-07-29T20:49:31.237Z,10.70
2022-07-29T20:51:58.854Z,10.50
2022-07-29T20:54:25.837Z,9.80
2022-07-29T20:56:53.352Z,10.53
2022-07-29T20:59:20.381Z,10.17
2022-07-29T21:01:47.552Z,10.03
2022-07-29T21:04:14.759Z,9.90
2022-07-29T21:06:41.776Z,11.13
2022-07-29T21:09:08.743Z,12.07
2022-07-29T21:11:44.023Z,12.03
2022-07-29T21:14:30.901Z,12.73
2022-07-29T21:16:58.721Z,11.50
2022-07-29T21:19:26.643Z,12.30
2022-07-29T21:21:53.684Z,11.40
2022-07-29T21:24:20.691Z,11.00
2022-07-29T21:27:04.936Z,11.77
2022-07-29T21:29:34.633Z,11.30
2022-07-29T21:32:01.678Z,12.23
2022-07-29T21:34:28.680Z,12.90
2022-07-29T21:36:55.654Z,12.73
2022-07-29T21:39:22.745Z,12.67
2022-07-29T21:41:49.778Z,13.23
2022-07-29T21:44:16.864Z,12.50
2022-07-29T21:46:43.943Z,12.30
2022-07-29T21:49:11.038Z,12.27
2022-07-29T21:51:38.121Z,13.80
2022-07-29T21:54:05.406Z,12.53
2022-07-29T21:56:33.545Z,13.00
2022-07-29T21:59:00.860Z,12.50
2022-07-29T22:01:27.966Z,11.80
2022-07-29T22:03:56.018Z,12.40
2022-07-29T22:06:23.003Z,12.50
2022-07-29T22:08:50.017Z,12.60
2022-07-29T22:11:17.008Z,12.33
2022-07-29T22:13:47.196Z,12.73
2022-07-29T22:16:15.180Z,13.23
2022-07-29T22:18:45.400Z,11.43
2022-07-29T22:21:15.045Z,12.47
2022-07-29T22:23:42.587Z,13.13
2022-07-29T22:26:09.569Z,12.63
2022-07-29T22:28:36.616Z,12.93
2022-07-29T22:31:03.799Z,14.30
2022-07-29T22:33:30.871Z,12.93
2022-07-29T22:35:57.859Z,11.57
2022-07-29T22:38:24.850Z,13.40
2022-07-29T22:40:52.881Z,12.67
2022-07-29T22:43:20.068Z,13.07
2022-07-29T22:45:47.309Z,11.17
2022-07-29T22:48:14.385Z,11.70
2022-07-29T22:50:41.912Z,11.67
2022-07-29T22:53:08.946Z,11.77
2022-07-29T22:55:36.146Z,11.80
2022-07-29T22:58:03.198Z,13.03
2022-07-29T23:00:30.278Z,13.27
2022-07-29T23:02:57.264Z,12.90
2022-07-29T23:05:24.314Z,12.67
2022-07-29T23:07:51.307Z,12.10
2022-07-29T23:10:18.317Z,11.97
2022-07-29T23:12:45.363Z,12.40
2022-07-29T23:15:13.226Z,12.23
2022-07-29T23:17:40.292Z,11.10
2022-07-29T23:20:09.034Z,13.33
2022-07-29T23:22:37.525Z,12.60
2022-07-29T23:25:05.315Z,12.00
2022-07-29T23:27:32.526Z,13.20
2022-07-29T23:29:59.520Z,12.17
2022-07-29T23:32:26.508Z,13.40
2022-07-29T23:34:53.588Z,12.00
2022-07-29T23:37:20.638Z,11.70
2022-07-29T23:39:47.619Z,12.13
2022-07-29T23:42:14.636Z,12.10
2022-07-29T23:44:41.671Z,11.40
2022-07-29T23:47:09.066Z,11.63
2022-07-29T23:49:36.056Z,11.10
2022-07-29T23:52:03.568Z,11.90
2022-07-29T23:54:30.585Z,11.40
2022-07-29T23:56:58.176Z,12.23
2022-07-29T23:59:25.501Z,11.57
